Dameron, Maryland
Current Conditions -  °F | °C
As of 6:53 AM on Tuesday 21 Oct 2014 (Local Time) from KNUI Reporting Station
Broken Clouds Broken Clouds  
Wind Chill: 60°   Ceiling: 12000
Heat Index: 60°   Visibility: 10mi
Dew Point: 48°   Wind: 9mph
Humidity: 64%   Direction: 230°SW
Pressure: 29.86"   Gusts: NA
Location:  38.14°N, 76.35°W
Report Text: KNUI 211053Z AUTO 23008KT 10SM SCT100 BKN120 16/09 A2986 RMK AO2 SLP111 T01560089
Loading
Personal Weather Stations






























Interactive Weather Map
Tropical Storm Tracking
New forecast layout! Learn more

10-Day Weather Forecast

Advertisements
Track Severe Weather on mobile